Time;durP1;ratioP1;P1;durP2;ratioP2;P2;SDS_P1;SDS_P2;PMS_P1;PMS_P2;Temp;Humidity;BMP_temperature;BMP_pressure;BME280_temperature;BME280_humidity;BME280_pressure;Samples;Min_cycle;Max_cycle;Signal;HPM_P1;HPM_P2
2021/08/29 00:02:10;;;;;;;10.02;4.10;;;;;;;16.35;74.39;102365.16;4983951;28;20030;-50
2021/08/29 00:04:35;;;;;;;14.38;4.50;;;;;;;16.31;74.37;102368.63;4981600;28;20022;-50
2021/08/29 00:07:01;;;;;;;13.25;4.53;;;;;;;16.32;74.38;102355.50;4985683;28;20048;-46
2021/08/29 00:09:26;;;;;;;12.98;4.15;;;;;;;16.34;74.04;102353.78;4987803;28;20022;-49
2021/08/29 00:11:51;;;;;;;10.20;4.10;;;;;;;16.33;74.18;102361.66;4990148;28;20732;-49
2021/08/29 00:14:16;;;;;;;13.93;4.35;;;;;;;16.39;73.93;102354.72;4986135;28;20038;-52
2021/08/29 00:16:42;;;;;;;12.73;4.20;;;;;;;16.42;73.88;102364.41;4986177;28;20026;-46
2021/08/29 00:19:07;;;;;;;11.40;4.20;;;;;;;16.35;73.91;102365.16;4977927;28;20025;-47
2021/08/29 00:21:32;;;;;;;13.40;4.18;;;;;;;16.35;73.73;102363.44;4989039;28;20038;-48
2021/08/29 00:23:58;;;;;;;9.98;4.03;;;;;;;16.19;74.10;102357.09;4991666;28;20068;-48
2021/08/29 00:26:24;;;;;;;12.82;4.28;;;;;;;16.40;73.28;102356.50;4987409;28;20132;-49
2021/08/29 00:28:50;;;;;;;13.75;4.35;;;;;;;16.31;73.58;102361.63;4979114;28;20113;-49
2021/08/29 00:31:15;;;;;;;10.60;4.10;;;;;;;16.41;73.51;102355.59;4979940;28;20061;-51
2021/08/29 00:33:41;;;;;;;11.25;3.92;;;;;;;16.44;73.15;102357.41;4984231;28;20108;-48
2021/08/29 00:36:06;;;;;;;9.38;4.20;;;;;;;16.48;72.89;102362.72;4982816;28;20076;-47
2021/08/29 00:38:31;;;;;;;10.23;4.00;;;;;;;16.43;72.65;102355.63;4986946;28;20076;-46
2021/08/29 00:40:56;;;;;;;10.60;3.92;;;;;;;16.40;72.24;102351.25;4982359;28;20044;-47
2021/08/29 00:43:23;;;;;;;11.52;4.10;;;;;;;16.47;71.89;102355.69;4985897;28;20033;-48
2021/08/29 00:45:52;;;;;;;13.55;4.18;;;;;;;16.50;71.26;102352.22;4985255;28;20085;-48
2021/08/29 00:48:17;;;;;;;11.77;3.90;;;;;;;16.51;70.98;102354.88;4985136;28;20105;-50
2021/08/29 00:50:49;;;;;;;10.10;3.83;;;;;;;16.52;70.67;102350.50;4984823;28;20087;-51
2021/08/29 00:53:16;;;;;;;10.43;3.75;;;;;;;16.47;70.52;102354.81;4985487;28;20532;-49
2021/08/29 00:55:41;;;;;;;8.43;3.70;;;;;;;16.51;70.42;102357.53;4981274;28;20026;-49
2021/08/29 00:58:07;;;;;;;9.43;3.55;;;;;;;16.48;69.54;102359.22;4985028;28;20104;-48
2021/08/29 01:00:33;;;;;;;7.72;3.72;;;;;;;16.48;69.17;102346.94;4983819;28;20053;-48
2021/08/29 01:02:59;;;;;;;7.80;3.70;;;;;;;16.45;68.91;102356.56;4984557;28;20402;-51
2021/08/29 01:05:29;;;;;;;7.82;3.30;;;;;;;16.42;68.94;102349.50;4985909;28;20531;-49
2021/08/29 01:07:57;;;;;;;7.70;3.55;;;;;;;16.34;68.58;102351.16;4982200;28;20047;-48
2021/08/29 01:10:27;;;;;;;7.65;3.75;;;;;;;16.40;68.80;102348.59;4982773;28;20083;-46
2021/08/29 01:12:55;;;;;;;9.65;3.78;;;;;;;16.36;68.40;102346.78;4981023;28;20056;-47
2021/08/29 01:15:22;;;;;;;8.80;3.40;;;;;;;16.35;68.42;102341.47;5001918;28;20474;-47
2021/08/29 01:17:48;;;;;;;9.93;3.63;;;;;;;16.36;68.07;102346.78;4984092;28;20383;-49
2021/08/29 01:20:21;;;;;;;8.68;3.72;;;;;;;16.40;68.27;102340.72;4983427;28;20036;-47
2021/08/29 01:22:48;;;;;;;8.85;3.50;;;;;;;16.38;68.39;102344.16;4984356;28;20053;-49
2021/08/29 01:25:20;;;;;;;8.60;3.67;;;;;;;16.37;68.24;102331.88;4968931;28;20207;-51
2021/08/29 01:28:13;;;;;;;6.85;3.53;;;;;;;16.43;68.38;102340.72;4996770;28;20034;-50
2021/08/29 01:30:38;;;;;;;9.48;3.90;;;;;;;16.40;68.21;102332.81;4984432;28;20046;-47
2021/08/29 01:33:07;;;;;;;11.43;4.32;;;;;;;16.29;68.70;102342.28;4983529;28;20030;-49
2021/08/29 01:35:35;;;;;;;6.88;3.72;;;;;;;16.32;68.82;102330.94;4981848;28;20376;-48
2021/08/29 01:38:02;;;;;;;10.27;4.15;;;;;;;16.25;68.95;102327.34;4982592;28;20029;-49
2021/08/29 01:40:28;;;;;;;8.45;3.70;;;;;;;16.26;68.64;102329.09;4983792;28;20117;-49
2021/08/29 01:42:54;;;;;;;8.52;4.00;;;;;;;16.19;68.75;102337.78;4982878;28;20022;-46
2021/08/29 01:45:19;;;;;;;8.88;4.03;;;;;;;16.23;68.88;102342.22;4976067;28;20100;-46
2021/08/29 01:47:45;;;;;;;8.68;3.85;;;;;;;16.19;69.16;102337.78;4980622;28;20347;-48
2021/08/29 01:50:11;;;;;;;11.27;4.05;;;;;;;16.11;69.25;102344.66;4984892;28;20030;-47
2021/08/29 01:52:36;;;;;;;13.02;4.40;;;;;;;16.01;69.39;102342.78;4981800;28;20329;-50
2021/08/29 01:55:02;;;;;;;11.20;4.35;;;;;;;16.01;69.50;102337.53;4983852;28;20022;-48
2021/08/29 01:57:29;;;;;;;12.27;4.32;;;;;;;16.00;69.76;102335.75;4981019;28;20040;-51
2021/08/29 01:59:54;;;;;;;7.70;4.05;;;;;;;15.95;70.01;102346.22;4965373;28;20149;-52
2021/08/29 02:02:20;;;;;;;7.60;4.20;;;;;;;15.88;70.25;102348.72;4966785;28;20073;-46
2021/08/29 02:04:45;;;;;;;11.20;4.32;;;;;;;15.81;70.62;102353.00;4986889;28;20018;-47
2021/08/29 02:07:32;;;;;;;13.10;4.47;;;;;;;15.72;70.98;102350.25;4980883;28;20045;-47
2021/08/29 02:10:02;;;;;;;14.88;5.05;;;;;;;15.72;71.13;102345.00;4984978;28;20046;-48
2021/08/29 02:12:32;;;;;;;11.80;4.63;;;;;;;15.68;71.61;102351.94;4984921;28;20033;-46
2021/08/29 02:15:01;;;;;;;9.88;4.13;;;;;;;15.66;71.90;102351.03;4981524;28;20026;-50
2021/08/29 02:17:28;;;;;;;10.85;4.63;;;;;;;15.65;72.00;102351.00;4982477;28;20029;-49
2021/08/29 02:19:55;;;;;;;10.77;4.50;;;;;;;15.66;72.33;102351.03;4999754;28;20163;-48
2021/08/29 02:22:20;;;;;;;11.57;4.35;;;;;;;15.68;72.48;102348.41;4979855;28;20049;-48
2021/08/29 02:24:46;;;;;;;11.48;4.72;;;;;;;15.71;72.63;102348.47;4985625;28;20034;-47
2021/08/29 02:27:11;;;;;;;10.82;4.60;;;;;;;15.77;72.68;102351.19;4983265;28;20029;-47
2021/08/29 02:29:37;;;;;;;13.27;4.80;;;;;;;15.75;72.93;102347.66;4982219;28;20356;-45
2021/08/29 02:32:04;;;;;;;12.52;4.72;;;;;;;15.81;72.77;102346.00;4980439;28;20568;-48
2021/08/29 02:34:29;;;;;;;11.18;4.88;;;;;;;15.85;73.05;102353.94;4980447;28;20333;-48
2021/08/29 02:36:56;;;;;;;9.80;4.72;;;;;;;15.86;73.04;102343.44;4983827;28;20034;-46
2021/08/29 02:39:23;;;;;;;10.63;4.40;;;;;;;15.85;73.37;102346.94;4981421;28;20026;-49
2021/08/29 02:41:49;;;;;;;14.15;4.80;;;;;;;15.89;73.49;102343.50;4982830;28;20041;-46
2021/08/29 02:44:16;;;;;;;11.35;4.20;;;;;;;15.94;73.35;102346.19;4996888;28;20085;-47
2021/08/29 02:46:42;;;;;;;10.50;4.63;;;;;;;15.95;73.46;102340.97;4981618;28;20056;-50
2021/08/29 02:49:07;;;;;;;12.18;4.28;;;;;;;15.99;73.03;102345.38;4996771;28;20422;-46
2021/08/29 02:51:33;;;;;;;10.77;4.78;;;;;;;15.97;73.22;102333.09;4981112;28;20168;-47
2021/08/29 02:53:59;;;;;;;12.15;4.97;;;;;;;16.05;72.96;102339.31;4982499;28;20041;-48
2021/08/29 02:56:24;;;;;;;13.23;4.97;;;;;;;16.06;73.03;102338.47;4978829;28;20081;-46
2021/08/29 02:58:50;;;;;;;9.93;4.65;;;;;;;16.06;73.25;102339.34;4982872;28;20553;-48
2021/08/29 03:01:15;;;;;;;14.18;4.82;;;;;;;16.05;72.90;102334.94;4983357;28;20092;-46
2021/08/29 03:03:41;;;;;;;9.27;4.65;;;;;;;16.07;73.03;102334.97;4986005;28;20072;-46
2021/08/29 03:06:08;;;;;;;10.00;4.88;;;;;;;16.06;73.11;102334.09;4984427;28;20022;-47
2021/08/29 03:08:33;;;;;;;12.70;4.82;;;;;;;16.06;72.92;102335.84;4983848;28;20680;-51
2021/08/29 03:10:59;;;;;;;13.52;4.72;;;;;;;16.12;72.89;102328.91;4981376;28;20099;-47
2021/08/29 03:13:25;;;;;;;11.70;5.13;;;;;;;16.13;72.98;102327.16;4984122;28;20373;-49
2021/08/29 03:15:50;;;;;;;11.57;4.80;;;;;;;16.14;72.75;102329.84;5000104;28;20088;-51
2021/08/29 03:18:16;;;;;;;9.13;4.57;;;;;;;16.16;72.93;102327.22;4977358;28;20030;-47
2021/08/29 03:20:41;;;;;;;11.35;4.28;;;;;;;16.20;73.14;102327.28;4984721;28;20026;-48
2021/08/29 03:23:07;;;;;;;11.52;4.80;;;;;;;16.21;72.83;102318.53;4985416;28;20026;-48
2021/08/29 03:25:33;;;;;;;10.82;4.70;;;;;;;16.22;72.62;102319.41;4978877;28;20030;-52
2021/08/29 03:27:59;;;;;;;11.23;5.25;;;;;;;16.24;72.86;102315.03;4980936;28;20041;-49
2021/08/29 03:30:24;;;;;;;10.68;4.47;;;;;;;16.28;72.73;102314.22;4984549;28;20117;-50
2021/08/29 03:32:49;;;;;;;11.23;4.60;;;;;;;16.29;72.86;102313.34;4988176;28;20432;-47
2021/08/29 03:35:15;;;;;;;13.43;4.18;;;;;;;16.28;73.12;102308.97;4981468;28;21279;-48
2021/08/29 03:37:41;;;;;;;11.95;3.92;;;;;;;16.29;73.23;102313.34;4981327;28;20045;-47
2021/08/29 03:40:07;;;;;;;10.98;4.15;;;;;;;16.34;73.21;102310.78;4984044;28;20121;-46
2021/08/29 03:42:34;;;;;;;8.30;3.80;;;;;;;16.27;73.37;102308.94;4982702;28;20111;-50
2021/08/29 03:45:00;;;;;;;14.00;4.07;;;;;;;16.26;74.19;102315.06;4978544;28;20549;-49
2021/08/29 03:47:26;;;;;;;10.77;3.88;;;;;;;16.33;73.80;102312.53;4983892;28;20025;-50
2021/08/29 03:49:51;;;;;;;12.68;4.10;;;;;;;16.36;73.86;102306.41;4980459;28;20680;-51
2021/08/29 03:52:18;;;;;;;13.13;3.95;;;;;;;16.35;73.91;102304.63;4980539;28;20076;-50
2021/08/29 03:54:45;;;;;;;11.50;3.70;;;;;;;16.39;73.86;102309.09;4980670;28;20418;-47
2021/08/29 03:57:11;;;;;;;10.38;3.60;;;;;;;16.37;74.19;102305.56;4982024;28;20054;-51
2021/08/29 03:59:36;;;;;;;10.80;3.15;;;;;;;16.32;74.30;102304.63;4986419;28;20176;-50
2021/08/29 04:02:03;;;;;;;12.52;3.28;;;;;;;16.39;74.03;102304.72;4987717;28;20073;-48
2021/08/29 04:04:29;;;;;;;10.40;3.15;;;;;;;16.41;74.13;102304.72;4988249;28;20018;-47
2021/08/29 04:06:55;;;;;;;11.35;3.20;;;;;;;16.38;74.18;102297.69;4986745;28;20034;-49
2021/08/29 04:09:22;;;;;;;10.70;3.22;;;;;;;16.37;74.39;102295.91;4988283;28;20033;-49
2021/08/29 04:11:49;;;;;;;10.77;3.20;;;;;;;16.41;74.44;102294.19;4987901;28;20041;-47
2021/08/29 04:14:15;;;;;;;9.27;3.30;;;;;;;16.41;74.46;102292.44;4990533;28;20022;-50
2021/08/29 04:16:41;;;;;;;10.32;3.00;;;;;;;16.45;73.96;102288.13;4985594;28;20048;-48
2021/08/29 04:19:07;;;;;;;13.88;3.58;;;;;;;16.43;74.11;102293.34;4978621;28;20472;-48
2021/08/29 04:21:33;;;;;;;10.35;2.90;;;;;;;16.43;74.31;102287.19;4986482;28;20500;-51
2021/08/29 04:23:59;;;;;;;12.63;3.35;;;;;;;16.40;74.44;102289.81;4987693;28;20030;-49
2021/08/29 04:26:24;;;;;;;11.27;3.13;;;;;;;16.41;74.40;102287.19;4990278;28;20537;-48
2021/08/29 04:28:50;;;;;;;8.82;3.00;;;;;;;16.35;74.09;102283.59;4987947;28;20034;-48
2021/08/29 04:31:18;;;;;;;11.13;3.40;;;;;;;16.34;73.97;102285.38;4986228;28;20041;-46
2021/08/29 04:33:44;;;;;;;9.30;3.03;;;;;;;16.41;73.72;102281.91;4983759;28;20057;-47
2021/08/29 04:36:09;;;;;;;13.30;2.95;;;;;;;16.47;73.08;102279.34;4980949;28;20128;-49
2021/08/29 04:38:35;;;;;;;10.25;3.05;;;;;;;16.46;72.46;102282.00;4986163;28;20029;-49
2021/08/29 04:41:01;;;;;;;12.63;3.15;;;;;;;16.47;72.24;102286.34;4984820;28;20057;-48
2021/08/29 04:43:26;;;;;;;10.00;3.00;;;;;;;16.47;72.40;102284.63;4989336;28;20033;-51
2021/08/29 04:45:52;;;;;;;8.43;2.97;;;;;;;16.48;71.96;102288.13;4985382;28;20026;-49
2021/08/29 04:48:17;;;;;;;11.25;2.97;;;;;;;16.53;71.54;102286.44;4982805;28;20033;-51
2021/08/29 04:50:43;;;;;;;15.02;3.53;;;;;;;16.58;71.40;102290.03;4986714;28;20041;-50
2021/08/29 04:53:08;;;;;;;15.60;2.58;;;;;;;16.54;71.16;102288.19;4983298;28;20049;-49
2021/08/29 04:55:34;;;;;;;12.27;2.95;;;;;;;16.54;70.85;102290.84;4988578;28;20038;-47
2021/08/29 04:57:59;;;;;;;12.93;3.17;;;;;;;16.65;71.18;102299.75;4984121;28;20061;-50
2021/08/29 05:00:24;;;;;;;14.48;3.35;;;;;;;16.57;71.36;102298.78;4984753;28;20127;-48
2021/08/29 05:02:50;;;;;;;10.00;2.95;;;;;;;16.70;71.26;102292.81;4982587;28;20033;-51
2021/08/29 05:05:15;;;;;;;13.07;3.28;;;;;;;16.62;71.60;102298.00;4984902;28;20667;-48
2021/08/29 05:07:40;;;;;;;12.00;3.38;;;;;;;16.71;71.49;102307.72;4985325;28;20121;-49
2021/08/29 05:10:06;;;;;;;10.38;3.03;;;;;;;16.67;71.31;102292.78;4984280;28;21316;-49
2021/08/29 05:12:32;;;;;;;8.73;3.20;;;;;;;16.65;71.41;102301.53;4984409;28;20116;-48
2021/08/29 05:14:57;;;;;;;10.60;3.00;;;;;;;16.76;70.91;102292.88;4981730;28;20045;-47
2021/08/29 05:17:22;;;;;;;13.18;3.25;;;;;;;16.71;71.51;102291.94;4983873;28;20029;-49
2021/08/29 05:19:47;;;;;;;11.82;3.10;;;;;;;16.74;71.89;102288.47;4991558;28;20013;-48
2021/08/29 05:22:13;;;;;;;11.88;3.20;;;;;;;16.84;71.58;102296.47;4987998;28;20069;-52
2021/08/29 05:24:38;;;;;;;13.10;2.97;;;;;;;16.88;71.64;102294.75;4987120;28;20018;-48
2021/08/29 05:27:04;;;;;;;15.77;3.60;;;;;;;16.89;71.68;102294.78;4983823;28;20073;-47
2021/08/29 05:29:29;;;;;;;11.13;3.10;;;;;;;16.82;71.54;102298.22;4980124;28;20038;-48
2021/08/29 05:31:55;;;;;;;11.02;3.20;;;;;;;16.87;71.36;102304.41;4987663;28;20085;-47
2021/08/29 05:34:21;;;;;;;17.40;3.65;;;;;;;16.82;71.47;102303.50;4986401;28;20109;-49
2021/08/29 05:36:46;;;;;;;11.95;3.53;;;;;;;16.88;71.48;102298.28;4980149;28;20030;-47
2021/08/29 05:39:11;;;;;;;12.70;3.00;;;;;;;16.88;71.31;102298.28;4985118;28;20660;-47
2021/08/29 05:41:37;;;;;;;11.65;2.83;;;;;;;16.87;71.20;102307.06;4987509;28;20073;-50
2021/08/29 05:44:02;;;;;;;7.20;2.83;;;;;;;16.93;70.59;102300.97;4985009;28;20929;-47
2021/08/29 05:46:27;;;;;;;11.05;3.00;;;;;;;16.87;69.86;102314.06;4984625;28;20025;-47
2021/08/29 05:48:53;;;;;;;8.77;2.90;;;;;;;17.00;70.22;102298.41;4984843;28;20553;-48
2021/08/29 05:51:19;;;;;;;10.25;3.13;;;;;;;16.97;70.10;102308.91;4985000;28;20430;-48
2021/08/29 05:53:45;;;;;;;13.40;3.20;;;;;;;16.96;69.92;102309.75;4982709;28;20933;-47
2021/08/29 05:56:10;;;;;;;10.07;3.05;;;;;;;16.99;69.79;102304.53;4987113;28;20034;-46
2021/08/29 05:58:35;;;;;;;11.82;2.88;;;;;;;17.05;69.77;102306.34;4983674;28;20037;-48
2021/08/29 06:01:01;;;;;;;13.38;3.22;;;;;;;17.07;69.65;102307.25;4978666;28;20021;-48
2021/08/29 06:03:27;;;;;;;13.27;3.30;;;;;;;16.99;69.33;102304.53;4984977;28;20072;-47
2021/08/29 06:05:52;;;;;;;11.27;3.10;;;;;;;16.98;69.23;102300.13;4983527;28;20079;-51
2021/08/29 06:08:18;;;;;;;11.38;2.80;;;;;;;17.10;68.93;102307.25;4980485;28;20562;-46
2021/08/29 06:10:43;;;;;;;11.55;2.83;;;;;;;16.96;69.52;102308.88;4984154;28;20080;-47
2021/08/29 06:13:09;;;;;;;12.40;2.90;;;;;;;16.99;69.23;102299.28;4976790;28;20719;-49
2021/08/29 06:15:34;;;;;;;11.30;2.90;;;;;;;16.99;69.08;102299.28;4984103;28;20092;-47
2021/08/29 06:17:59;;;;;;;10.65;3.03;;;;;;;17.14;68.78;102308.19;4986075;28;20037;-50
2021/08/29 06:20:25;;;;;;;15.30;3.03;;;;;;;17.12;68.84;102302.03;4984224;28;20394;-48
2021/08/29 06:22:51;;;;;;;8.60;2.90;;;;;;;17.12;69.04;102300.28;4981339;28;20030;-48
2021/08/29 06:25:17;;;;;;;12.35;3.38;;;;;;;17.24;68.78;102304.75;4983573;28;20654;-48
2021/08/29 06:27:42;;;;;;;9.45;3.17;;;;;;;17.23;68.76;102295.09;4984203;28;20398;-50
2021/08/29 06:30:08;;;;;;;10.80;2.83;;;;;;;17.29;69.33;102289.88;4984754;28;20600;-49
2021/08/29 06:32:33;;;;;;;10.95;2.90;;;;;;;17.22;69.05;102294.19;4985762;28;20452;-48
2021/08/29 06:34:58;;;;;;;9.15;2.85;;;;;;;17.32;68.96;102298.66;4983839;28;20590;-49
2021/08/29 06:37:24;;;;;;;11.02;3.50;;;;;;;17.26;68.70;102297.75;4982823;28;20694;-47
2021/08/29 06:39:49;;;;;;;9.30;2.60;;;;;;;17.21;68.52;102287.16;4982796;28;20371;-48
2021/08/29 06:42:14;;;;;;;10.02;3.15;;;;;;;17.47;69.33;102297.03;4983616;28;20086;-48
2021/08/29 06:44:40;;;;;;;9.20;2.47;;;;;;;17.29;68.61;102296.03;4984018;28;20771;-50
2021/08/29 06:47:05;;;;;;;10.25;3.10;;;;;;;17.37;68.93;102296.09;4985296;28;20103;-48
2021/08/29 06:49:30;;;;;;;11.43;2.85;;;;;;;17.35;68.94;102293.44;4985474;28;20042;-49
2021/08/29 06:51:56;;;;;;;8.85;2.90;;;;;;;17.29;68.88;102292.50;4983201;28;20037;-48
2021/08/29 06:54:21;;;;;;;11.75;2.70;;;;;;;17.40;68.18;102288.19;4983177;28;20026;-50
2021/08/29 06:56:47;;;;;;;9.32;2.75;;;;;;;17.46;68.59;102293.50;4985491;28;20030;-47
2021/08/29 06:59:12;;;;;;;12.63;3.00;;;;;;;17.29;68.66;102293.38;4980761;28;20088;-49
2021/08/29 07:01:38;;;;;;;11.73;2.80;;;;;;;17.47;68.70;102295.28;4982939;28;20033;-47
2021/08/29 07:04:03;;;;;;;11.05;3.00;;;;;;;17.22;69.21;102294.19;4983337;28;20056;-49
2021/08/29 07:06:29;;;;;;;11.80;3.20;;;;;;;17.20;69.02;102284.53;4985028;28;20454;-46
2021/08/29 07:08:54;;;;;;;11.63;2.90;;;;;;;17.33;68.88;102292.53;4984403;28;20030;-48
2021/08/29 07:11:19;;;;;;;9.93;2.67;;;;;;;17.42;68.74;102283.81;4987432;28;20053;-50
2021/08/29 07:13:45;;;;;;;9.38;2.97;;;;;;;17.40;68.80;102288.19;4983938;28;20252;-47
2021/08/29 07:16:10;;;;;;;12.60;3.38;;;;;;;17.47;68.72;102276.81;4981798;28;20069;-49
2021/08/29 07:18:35;;;;;;;10.57;3.10;;;;;;;17.47;68.30;102282.09;4982145;28;20105;-47
2021/08/29 07:21:01;;;;;;;12.38;3.10;;;;;;;17.62;68.39;102284.91;4964808;28;20164;-48
2021/08/29 07:23:29;;;;;;;10.10;2.58;;;;;;;17.89;67.67;102280.63;4986705;28;20024;-49
2021/08/29 07:25:55;;;;;;;8.30;2.80;;;;;;;17.91;67.36;102273.63;4985717;28;20065;-49
2021/08/29 07:28:20;;;;;;;11.45;3.00;;;;;;;18.14;66.30;102287.81;4978731;28;20616;-47
2021/08/29 07:30:46;;;;;;;11.48;2.63;;;;;;;18.21;66.08;102285.22;4983453;28;20054;-49
2021/08/29 07:33:11;;;;;;;8.18;2.70;;;;;;;18.07;65.74;102283.38;4982373;28;20092;-49
2021/08/29 07:35:36;;;;;;;9.60;2.70;;;;;;;18.27;65.92;102287.00;4988212;28;20650;-50
2021/08/29 07:38:04;;;;;;;9.20;3.00;;;;;;;18.38;66.80;102294.94;4988161;28;20471;-47
2021/08/29 07:40:29;;;;;;;11.27;2.92;;;;;;;18.24;66.39;102282.56;4989291;28;20121;-49
2021/08/29 07:42:56;;;;;;;11.05;2.90;;;;;;;18.44;66.86;102287.06;4986353;28;20109;-47
2021/08/29 07:45:21;;;;;;;13.00;2.80;;;;;;;18.16;67.12;102288.72;4981347;28;20033;-46
2021/08/29 07:47:52;;;;;;;13.30;3.13;;;;;;;18.12;66.83;102279.00;4987032;28;20425;-50
2021/08/29 07:50:18;;;;;;;10.10;2.70;;;;;;;18.29;66.58;102279.09;4984823;28;20030;-48
2021/08/29 07:52:44;;;;;;;13.00;3.05;;;;;;;18.39;66.44;102272.97;4987002;28;20088;-48
2021/08/29 07:55:09;;;;;;;12.55;2.90;;;;;;;18.27;66.30;102281.72;4987729;28;20033;-49
2021/08/29 07:57:35;;;;;;;9.23;3.05;;;;;;;18.30;66.71;102276.44;4980544;28;20042;-48
2021/08/29 08:00:01;;;;;;;11.57;2.95;;;;;;;18.36;67.04;102281.75;4984434;28;20034;-47
2021/08/29 08:02:26;;;;;;;14.90;3.08;;;;;;;18.13;67.61;102268.44;4987409;28;20030;-47
2021/08/29 08:04:51;;;;;;;7.72;2.70;;;;;;;18.20;67.03;102270.25;4987677;28;20034;-48
2021/08/29 08:07:17;;;;;;;11.35;2.85;;;;;;;18.19;67.18;102272.88;4974806;28;20110;-47
2021/08/29 08:09:42;;;;;;;10.50;2.92;;;;;;;18.35;67.09;102276.47;4982948;28;20370;-52
2021/08/29 08:12:07;;;;;;;9.30;3.03;;;;;;;18.42;66.98;102275.63;4988030;28;20111;-47
2021/08/29 08:14:33;;;;;;;11.02;2.88;;;;;;;18.46;66.56;102274.75;4986880;28;20030;-49
2021/08/29 08:16:58;;;;;;;10.38;3.00;;;;;;;18.40;67.07;102280.91;4983515;28;20572;-52
2021/08/29 08:19:24;;;;;;;11.60;2.78;;;;;;;18.20;67.12;102283.44;4987406;28;20030;-46
2021/08/29 08:21:49;;;;;;;10.95;3.00;;;;;;;18.19;67.48;102279.03;4982119;28;20033;-47
2021/08/29 08:24:14;;;;;;;11.30;3.00;;;;;;;18.34;67.00;102275.59;4989334;28;20030;-48
2021/08/29 08:26:40;;;;;;;13.00;3.03;;;;;;;18.38;66.68;102273.84;4986501;28;20022;-48
2021/08/29 08:29:05;;;;;;;10.32;2.80;;;;;;;18.48;66.84;102280.94;4988079;28;20493;-50
2021/08/29 08:31:31;;;;;;;12.32;2.80;;;;;;;18.48;66.58;102273.84;4981355;28;20041;-48
2021/08/29 08:33:56;;;;;;;11.00;2.78;;;;;;;18.45;66.30;102283.53;4980238;28;20485;-48
2021/08/29 08:36:21;;;;;;;12.35;3.00;;;;;;;18.21;66.69;102277.28;4982048;28;20474;-50
2021/08/29 08:38:47;;;;;;;14.10;3.35;;;;;;;18.42;67.01;102283.53;4984333;28;20061;-48
2021/08/29 08:41:13;;;;;;;12.77;3.20;;;;;;;18.40;66.69;102280.00;4987936;28;20595;-47
2021/08/29 08:43:38;;;;;;;15.95;3.20;;;;;;;18.50;66.58;102280.03;4984920;28;20057;-46
2021/08/29 08:46:03;;;;;;;15.88;3.15;;;;;;;18.30;66.38;102283.50;4983044;28;20567;-49
2021/08/29 08:48:29;;;;;;;15.25;3.28;;;;;;;18.38;66.51;102285.28;4986203;28;20069;-50
2021/08/29 08:50:57;;;;;;;11.75;2.70;;;;;;;18.28;66.95;102283.50;4984103;28;20057;-48
2021/08/29 08:53:24;;;;;;;12.52;3.20;;;;;;;18.52;67.06;102278.28;4980702;28;20031;-49
2021/08/29 08:55:50;;;;;;;14.48;3.17;;;;;;;18.29;67.13;102284.38;4986183;28;20022;-50
2021/08/29 08:58:16;;;;;;;15.60;3.33;;;;;;;18.39;66.42;102280.88;4986055;28;20234;-48
2021/08/29 09:00:42;;;;;;;12.88;3.28;;;;;;;18.38;67.46;102287.03;4987991;28;20022;-50
2021/08/29 09:03:09;;;;;;;11.07;3.00;;;;;;;18.34;66.51;102277.34;4990958;28;20021;-48
2021/08/29 09:05:39;;;;;;;12.15;3.03;;;;;;;18.30;66.80;102275.59;4973770;28;20056;-47
2021/08/29 09:08:06;;;;;;;12.52;3.17;;;;;;;18.56;66.67;102284.50;4982582;28;20038;-49
2021/08/29 09:10:31;;;;;;;13.93;3.03;;;;;;;18.50;66.39;102279.16;4983652;28;20046;-51
2021/08/29 09:12:58;;;;;;;15.52;3.35;;;;;;;18.51;66.72;102275.63;4984215;28;20029;-52
2021/08/29 09:15:24;;;;;;;9.70;2.67;;;;;;;18.81;66.65;102274.84;4985456;28;20386;-47
2021/08/29 09:17:49;;;;;;;12.80;3.38;;;;;;;18.93;66.90;102278.41;4981563;28;20228;-49
2021/08/29 09:20:27;;;;;;;13.85;3.20;;;;;;;18.87;65.92;102280.16;4988865;28;20038;-50
2021/08/29 09:23:01;;;;;;;14.10;3.03;;;;;;;19.06;66.45;102274.00;4978871;28;20026;-47
2021/08/29 09:25:29;;;;;;;12.00;3.10;;;;;;;18.86;65.52;102284.56;4985161;28;20114;-48
2021/08/29 09:28:00;;;;;;;14.27;3.15;;;;;;;18.92;65.14;102283.69;4984181;28;20547;-50
2021/08/29 09:30:30;;;;;;;13.35;2.92;;;;;;;18.93;65.50;102282.81;4989225;28;20073;-48
2021/08/29 09:32:59;;;;;;;16.50;3.72;;;;;;;18.81;65.86;102288.06;4984941;28;20531;-51
2021/08/29 09:35:27;;;;;;;13.40;3.10;;;;;;;18.75;65.19;102283.66;4984439;28;20033;-48
2021/08/29 09:37:53;;;;;;;14.63;3.33;;;;;;;18.54;65.38;102284.44;4980126;28;20156;-48
2021/08/29 09:40:22;;;;;;;11.88;2.97;;;;;;;18.45;65.89;102279.16;4982635;28;20041;-47
2021/08/29 09:42:48;;;;;;;11.70;2.85;;;;;;;18.36;65.20;102278.25;4981519;28;20594;-48
2021/08/29 09:45:27;;;;;;;12.32;2.90;;;;;;;18.30;65.44;102280.88;4970292;28;20030;-49
2021/08/29 09:47:57;;;;;;;13.15;2.80;;;;;;;18.46;65.65;102278.28;4985060;28;20036;-50
2021/08/29 09:50:23;;;;;;;10.25;2.63;;;;;;;18.21;65.22;102282.56;4981553;28;20113;-49
2021/08/29 09:53:01;;;;;;;13.43;3.33;;;;;;;18.22;65.52;102278.19;4982627;28;20030;-49
2021/08/29 09:55:31;;;;;;;10.23;2.70;;;;;;;18.29;64.58;102272.06;4983647;28;20060;-52
2021/08/29 09:57:56;;;;;;;12.60;2.90;;;;;;;18.09;65.54;102276.34;4986143;28;20398;-54
2021/08/29 10:00:22;;;;;;;10.13;2.92;;;;;;;18.20;65.69;102279.91;4983982;28;20549;-49
2021/08/29 10:03:00;;;;;;;11.38;2.85;;;;;;;18.47;65.44;102284.44;4985971;28;20026;-47
2021/08/29 10:05:25;;;;;;;10.68;2.58;;;;;;;18.29;65.86;102271.19;4986237;28;20569;-50
2021/08/29 10:07:59;;;;;;;13.13;2.55;;;;;;;18.36;65.77;102281.75;4985084;28;20037;-49
2021/08/29 10:10:26;;;;;;;15.57;2.80;;;;;;;18.53;66.03;102265.97;4982911;28;20026;-47
2021/08/29 10:12:53;;;;;;;15.80;2.90;;;;;;;18.58;65.36;102270.41;4974470;28;20030;-47
2021/08/29 10:15:19;;;;;;;10.80;2.75;;;;;;;18.72;65.18;102261.66;4982130;28;20037;-46
2021/08/29 10:17:45;;;;;;;11.65;2.67;;;;;;;18.82;64.81;102261.66;4983203;28;20104;-47
2021/08/29 10:20:20;;;;;;;17.60;3.17;;;;;;;18.81;64.59;102265.19;4986577;28;20075;-49
2021/08/29 10:22:46;;;;;;;9.07;2.63;;;;;;;18.88;64.48;102253.75;4984056;28;20034;-50
2021/08/29 10:25:12;;;;;;;12.70;2.67;;;;;;;19.11;64.56;102252.84;4984396;28;20041;-50
2021/08/29 10:27:39;;;;;;;18.40;3.13;;;;;;;19.22;64.33;102251.09;4979850;28;20529;-47
2021/08/29 10:30:08;;;;;;;14.32;2.85;;;;;;;19.31;64.12;102251.09;4983987;28;20061;-49
2021/08/29 10:32:35;;;;;;;19.55;3.05;;;;;;;19.08;64.15;102244.94;4983097;28;20037;-50
2021/08/29 10:35:07;;;;;;;12.52;2.80;;;;;;;18.77;64.86;102251.97;4996276;28;20116;-51
2021/08/29 10:37:36;;;;;;;12.45;2.72;;;;;;;18.75;65.70;102259.00;4985920;28;20380;-52
2021/08/29 10:40:02;;;;;;;12.55;2.90;;;;;;;18.95;65.25;102255.50;4987193;28;20033;-49
2021/08/29 10:42:28;;;;;;;14.23;2.72;;;;;;;18.82;65.61;102251.09;4976436;28;20157;-47
2021/08/29 10:44:53;;;;;;;15.05;3.10;;;;;;;18.85;65.68;102251.06;4980762;28;20030;-46
2021/08/29 10:47:21;;;;;;;13.85;3.05;;;;;;;18.85;65.65;102245.78;4978613;28;20018;-48
2021/08/29 10:49:47;;;;;;;10.20;2.85;;;;;;;18.82;65.62;102248.44;4983388;28;20474;-48
2021/08/29 10:52:13;;;;;;;14.80;3.15;;;;;;;18.86;65.62;102244.03;4981715;28;20118;-47
2021/08/29 10:55:08;;;;;;;10.18;2.70;;;;;;;18.82;66.71;102252.84;4980279;28;20026;-48
2021/08/29 10:57:36;;;;;;;14.30;2.72;;;;;;;18.75;65.86;102244.03;4983505;28;20060;-47
2021/08/29 11:00:04;;;;;;;15.43;3.08;;;;;;;18.89;66.24;102236.13;4982197;28;20041;-48
2021/08/29 11:02:42;;;;;;;10.95;2.80;;;;;;;18.37;67.16;102243.91;4980211;28;20109;-49
2021/08/29 11:05:09;;;;;;;11.50;2.83;;;;;;;18.39;67.66;102242.16;4985414;28;20025;-47
2021/08/29 11:07:43;;;;;;;14.52;2.88;;;;;;;18.47;67.42;102245.72;4987679;28;20017;-47
2021/08/29 11:10:11;;;;;;;16.45;3.03;;;;;;;17.96;70.15;102246.38;4989816;28;20396;-48
2021/08/29 11:12:37;;;;;;;15.45;3.17;;;;;;;17.57;72.29;102246.13;4983554;28;20037;-47
2021/08/29 11:15:08;;;;;;;14.35;3.42;;;;;;;17.48;72.71;102238.16;4984774;28;20117;-50
2021/08/29 11:17:38;;;;;;;13.82;3.35;;;;;;;17.60;73.02;102235.59;4985199;28;20026;-47